createdAt,value
2023-03-27T00:01:30.584Z,20.50
2023-03-27T00:03:59.425Z,20.67
2023-03-27T00:06:27.811Z,23.93
2023-03-27T00:08:56.493Z,21.17
2023-03-27T00:11:25.962Z,16.93
2023-03-27T00:13:55.317Z,18.63
2023-03-27T00:16:26.724Z,23.10
2023-03-27T00:18:57.745Z,18.27
2023-03-27T00:21:27.138Z,21.37
2023-03-27T00:23:56.538Z,19.80
2023-03-27T00:26:25.400Z,18.43
2023-03-27T00:28:54.891Z,23.33
2023-03-27T00:31:23.624Z,25.73
2023-03-27T00:33:52.557Z,19.57
2023-03-27T00:36:22.462Z,29.77
2023-03-27T00:38:53.064Z,20.57
2023-03-27T00:41:22.229Z,22.57
2023-03-27T00:43:54.065Z,28.60
2023-03-27T00:46:41.120Z,22.83
2023-03-27T00:49:12.869Z,23.77
2023-03-27T00:51:46.652Z,21.93
2023-03-27T00:54:21.763Z,17.20
2023-03-27T00:56:50.777Z,24.43
2023-03-27T00:59:22.032Z,20.57
2023-03-27T01:01:51.301Z,22.63
2023-03-27T01:04:21.477Z,23.83
2023-03-27T01:06:54.912Z,23.30
2023-03-27T01:09:27.237Z,17.33
2023-03-27T01:12:27.800Z,18.23
2023-03-27T01:15:21.475Z,23.37
2023-03-27T01:18:14.378Z,16.83
2023-03-27T01:21:26.108Z,29.20
2023-03-27T01:24:27.260Z,20.23
2023-03-27T01:27:07.568Z,16.47
2023-03-27T01:29:46.931Z,24.83
2023-03-27T01:32:51.311Z,19.43
2023-03-27T01:35:49.078Z,26.03
2023-03-27T01:38:41.687Z,21.50
2023-03-27T01:41:16.179Z,17.33
2023-03-27T01:43:51.763Z,21.63
2023-03-27T01:46:25.957Z,14.73
2023-03-27T01:49:00.889Z,16.40
2023-03-27T01:51:34.169Z,20.20
2023-03-27T01:54:08.958Z,22.20
2023-03-27T01:56:51.653Z,22.73
2023-03-27T01:59:23.272Z,21.00
2023-03-27T02:01:57.497Z,23.47
2023-03-27T02:04:30.105Z,33.10
2023-03-27T02:07:03.207Z,17.33
2023-03-27T02:09:37.409Z,21.00
2023-03-27T02:12:12.712Z,14.00
2023-03-27T02:14:47.467Z,21.13
2023-03-27T02:17:20.424Z,15.40
2023-03-27T02:19:56.196Z,17.63
2023-03-27T02:22:37.351Z,13.57
2023-03-27T02:25:26.161Z,23.27
2023-03-27T02:28:15.603Z,21.10
2023-03-27T02:31:05.361Z,19.90
2023-03-27T02:33:53.985Z,20.97
2023-03-27T02:36:31.523Z,25.27
2023-03-27T02:39:02.792Z,19.50
2023-03-27T02:41:37.590Z,19.37
2023-03-27T02:44:32.595Z,16.47
2023-03-27T02:47:08.729Z,27.43
2023-03-27T02:49:41.840Z,14.77
2023-03-27T02:52:14.848Z,19.90
2023-03-27T02:54:49.874Z,13.43
2023-03-27T02:57:25.108Z,15.73
2023-03-27T03:00:25.527Z,19.20
2023-03-27T03:03:18.723Z,18.60
2023-03-27T03:05:56.077Z,22.83
2023-03-27T03:08:30.602Z,18.20
2023-03-27T03:11:06.043Z,18.90
2023-03-27T03:13:35.645Z,22.43
2023-03-27T03:16:06.306Z,19.77
2023-03-27T03:18:35.592Z,14.70
2023-03-27T03:21:04.745Z,24.67
2023-03-27T03:23:34.047Z,17.93
2023-03-27T03:26:03.653Z,17.30
2023-03-27T03:29:00.882Z,22.03
2023-03-27T03:31:44.150Z,18.80
2023-03-27T03:34:16.230Z,17.03
2023-03-27T03:36:49.101Z,21.30
2023-03-27T03:39:20.858Z,20.93
2023-03-27T03:41:51.823Z,25.27
2023-03-27T03:44:21.133Z,17.57
2023-03-27T03:46:51.134Z,29.50
2023-03-27T03:49:22.881Z,26.80
2023-03-27T03:52:03.619Z,20.13
2023-03-27T03:54:33.969Z,18.57
2023-03-27T03:57:03.203Z,20.80
2023-03-27T03:59:33.548Z,30.33
2023-03-27T04:02:29.396Z,21.93
2023-03-27T04:05:09.735Z,33.43
2023-03-27T04:07:41.046Z,22.43
2023-03-27T04:10:33.927Z,18.70
2023-03-27T04:13:06.363Z,28.20
2023-03-27T04:15:39.219Z,23.07
2023-03-27T04:18:09.220Z,18.27
2023-03-27T04:20:39.612Z,26.30
2023-03-27T04:23:11.423Z,23.97
2023-03-27T04:25:42.415Z,23.80
2023-03-27T04:28:16.800Z,17.73
2023-03-27T04:30:50.578Z,19.97
2023-03-27T04:33:46.437Z,21.83
2023-03-27T04:36:39.656Z,25.23
2023-03-27T04:39:16.681Z,19.90
2023-03-27T04:41:49.210Z,22.37
2023-03-27T04:44:18.645Z,23.27
2023-03-27T04:46:50.025Z,17.43
2023-03-27T04:49:20.406Z,20.70
2023-03-27T04:51:58.051Z,19.07
2023-03-27T04:54:31.688Z,18.03
2023-03-27T04:57:03.306Z,22.73
2023-03-27T04:59:32.267Z,22.57
2023-03-27T05:02:27.879Z,28.67
2023-03-27T05:05:05.169Z,22.87
2023-03-27T05:07:37.348Z,15.63
2023-03-27T05:10:08.295Z,26.50
2023-03-27T05:12:37.730Z,18.13
2023-03-27T05:15:07.120Z,19.47
2023-03-27T05:17:41.690Z,24.33
2023-03-27T05:20:15.134Z,19.57
2023-03-27T05:22:45.296Z,18.93
2023-03-27T05:25:27.311Z,20.53
2023-03-27T05:27:57.145Z,25.47
2023-03-27T05:30:30.257Z,30.90
2023-03-27T05:33:16.416Z,21.07
2023-03-27T05:35:47.282Z,32.20
2023-03-27T05:38:17.274Z,18.83
2023-03-27T05:41:05.111Z,27.13
2023-03-27T05:43:38.211Z,17.97
2023-03-27T05:46:07.665Z,20.53
2023-03-27T05:48:38.575Z,25.53
2023-03-27T05:51:09.415Z,20.67
2023-03-27T05:53:39.647Z,24.70
2023-03-27T05:56:18.854Z,23.20
2023-03-27T05:58:56.364Z,19.13
2023-03-27T06:01:26.312Z,27.37
2023-03-27T06:03:57.403Z,17.83
2023-03-27T06:06:32.717Z,19.90
2023-03-27T06:09:01.492Z,25.27
2023-03-27T06:11:31.619Z,20.37
2023-03-27T06:14:00.347Z,24.27
2023-03-27T06:16:44.852Z,24.50
2023-03-27T06:19:32.121Z,21.23
2023-03-27T06:22:02.134Z,25.27
2023-03-27T06:24:31.472Z,15.93
2023-03-27T06:27:02.868Z,24.40
2023-03-27T06:29:34.090Z,14.40
2023-03-27T06:32:02.793Z,21.27
2023-03-27T06:34:36.134Z,18.63
2023-03-27T06:37:33.788Z,15.27
2023-03-27T06:40:04.644Z,18.37
2023-03-27T06:42:34.700Z,21.87
2023-03-27T06:45:24.385Z,20.70
2023-03-27T06:48:28.720Z,25.27
2023-03-27T06:50:59.355Z,15.50
2023-03-27T06:53:32.279Z,16.57
2023-03-27T06:56:05.058Z,18.23
2023-03-27T06:58:52.592Z,15.57
2023-03-27T07:01:24.140Z,25.83
2023-03-27T07:04:02.993Z,23.37
2023-03-27T07:07:07.789Z,19.27
2023-03-27T07:09:42.111Z,21.20
2023-03-27T07:12:15.698Z,13.93
2023-03-27T07:14:46.868Z,22.77
2023-03-27T07:17:15.932Z,21.57
2023-03-27T07:19:56.669Z,17.90
2023-03-27T07:22:28.811Z,18.77
2023-03-27T07:25:01.262Z,19.43
2023-03-27T07:27:38.793Z,15.77
2023-03-27T07:30:09.024Z,27.20
2023-03-27T07:32:38.174Z,29.43
2023-03-27T07:35:09.818Z,24.00
2023-03-27T07:37:57.682Z,16.50
2023-03-27T07:40:40.826Z,23.27
2023-03-27T07:43:42.258Z,20.37
2023-03-27T07:46:11.645Z,28.83
2023-03-27T07:48:41.254Z,29.93
2023-03-27T07:51:17.586Z,21.10
2023-03-27T07:53:46.974Z,21.80
2023-03-27T07:56:24.606Z,17.87
2023-03-27T07:59:11.701Z,22.77
2023-03-27T08:01:42.440Z,19.53
2023-03-27T08:04:11.632Z,23.17
2023-03-27T08:06:42.700Z,15.67
2023-03-27T08:09:19.226Z,17.70
2023-03-27T08:11:50.541Z,27.07
2023-03-27T08:14:19.347Z,20.00
2023-03-27T08:16:48.150Z,19.67
2023-03-27T08:19:18.665Z,24.97
2023-03-27T08:21:51.090Z,20.97
2023-03-27T08:24:20.831Z,17.87
2023-03-27T08:27:09.429Z,34.60
2023-03-27T08:29:43.402Z,20.77
2023-03-27T08:32:12.066Z,22.40
2023-03-27T08:34:44.084Z,18.43
2023-03-27T08:37:13.326Z,18.07
2023-03-27T08:40:02.316Z,22.73
2023-03-27T08:42:39.353Z,20.87
2023-03-27T08:45:15.581Z,23.83
2023-03-27T08:47:52.831Z,18.13
2023-03-27T08:50:39.553Z,23.90
2023-03-27T08:53:21.070Z,21.00
2023-03-27T08:55:49.877Z,10.10
2023-03-27T08:58:25.688Z,23.80
2023-03-27T09:01:20.205Z,17.97
2023-03-27T09:03:53.847Z,15.13
2023-03-27T09:06:28.266Z,20.83
2023-03-27T09:09:08.668Z,14.77
2023-03-27T09:11:49.012Z,17.07
2023-03-27T09:14:31.426Z,17.07
2023-03-27T09:17:05.914Z,16.30
2023-03-27T09:19:44.429Z,25.50
2023-03-27T09:22:23.629Z,16.80
2023-03-27T09:25:19.030Z,12.07
2023-03-27T09:27:50.719Z,17.10
2023-03-27T09:30:36.606Z,28.03
2023-03-27T09:33:12.956Z,16.00
2023-03-27T09:35:44.194Z,14.33
2023-03-27T09:38:27.958Z,12.50
2023-03-27T09:41:00.104Z,18.57
2023-03-27T09:43:37.503Z,15.23
2023-03-27T09:46:08.774Z,21.60
2023-03-27T09:48:45.100Z,31.97
2023-03-27T09:51:41.241Z,23.10
2023-03-27T09:54:18.869Z,11.47
2023-03-27T09:56:51.946Z,23.70
2023-03-27T09:59:25.099Z,18.27
2023-03-27T10:01:59.077Z,22.17
2023-03-27T10:04:30.288Z,13.70
2023-03-27T10:07:05.551Z,13.13
2023-03-27T10:10:08.415Z,11.00
2023-03-27T10:12:57.135Z,14.97
2023-03-27T10:15:36.401Z,11.03
2023-03-27T10:18:09.676Z,22.17
2023-03-27T10:20:38.821Z,15.57
2023-03-27T10:23:10.081Z,14.50
2023-03-27T10:25:50.061Z,17.43
2023-03-27T10:28:30.844Z,8.53
2023-03-27T10:31:34.043Z,9.53
2023-03-27T10:34:36.572Z,19.60
2023-03-27T10:37:23.228Z,18.13
2023-03-27T10:40:00.534Z,13.47
2023-03-27T10:42:37.283Z,25.93
2023-03-27T10:45:07.787Z,19.80
2023-03-27T10:47:36.907Z,14.03
2023-03-27T10:50:15.078Z,16.00
2023-03-27T10:52:57.853Z,18.90
2023-03-27T10:55:48.564Z,13.37
2023-03-27T10:58:25.688Z,24.80
2023-03-27T11:01:00.147Z,16.30
2023-03-27T11:03:35.403Z,21.67
2023-03-27T11:06:15.325Z,19.50
2023-03-27T11:09:05.586Z,18.23
2023-03-27T11:11:40.934Z,15.57
2023-03-27T11:14:16.715Z,17.87
2023-03-27T11:16:49.968Z,18.90
2023-03-27T11:19:56.685Z,24.60
2023-03-27T11:22:47.718Z,15.83
2023-03-27T11:25:41.052Z,14.70
2023-03-27T11:28:25.004Z,18.83
2023-03-27T11:30:57.950Z,16.60
2023-03-27T11:33:37.213Z,24.30
2023-03-27T11:36:30.833Z,22.77
2023-03-27T11:39:19.978Z,16.47
2023-03-27T11:41:53.720Z,21.30
2023-03-27T11:44:24.570Z,17.43
2023-03-27T11:47:28.936Z,15.03
2023-03-27T11:50:15.984Z,21.17
2023-03-27T11:52:57.088Z,23.73
2023-03-27T11:56:07.771Z,14.83
2023-03-27T11:58:45.870Z,17.97
2023-03-27T12:01:22.711Z,14.30
2023-03-27T12:04:18.054Z,20.10
2023-03-27T12:07:36.141Z,20.20
2023-03-27T12:10:27.447Z,23.90
2023-03-27T12:13:55.047Z,17.43
2023-03-27T12:17:01.250Z,25.00
2023-03-27T12:20:18.974Z,19.97
2023-03-27T12:22:59.700Z,21.50
2023-03-27T12:26:01.907Z,16.17
2023-03-27T12:29:22.691Z,12.47
2023-03-27T12:32:16.528Z,16.30
2023-03-27T12:34:54.378Z,25.57
2023-03-27T12:37:29.950Z,19.17
2023-03-27T12:40:00.639Z,23.77
2023-03-27T12:42:52.093Z,19.57
2023-03-27T12:45:27.467Z,25.53
2023-03-27T12:48:19.170Z,14.60
2023-03-27T12:50:58.138Z,29.03
2023-03-27T12:53:49.960Z,27.23
2023-03-27T12:56:35.825Z,24.00
2023-03-27T12:59:19.764Z,26.77
2023-03-27T13:02:17.747Z,31.27
2023-03-27T13:05:26.873Z,21.47
2023-03-27T13:08:14.470Z,22.60
2023-03-27T13:11:23.403Z,17.73
2023-03-27T13:14:28.204Z,15.97
2023-03-27T13:17:15.533Z,27.87
2023-03-27T13:19:59.542Z,33.37
2023-03-27T13:23:00.757Z,22.43
2023-03-27T13:25:39.612Z,27.10
2023-03-27T13:28:34.469Z,22.47
2023-03-27T13:31:35.344Z,16.97
2023-03-27T13:34:34.112Z,16.63
2023-03-27T13:37:49.058Z,14.10
2023-03-27T13:40:27.307Z,19.90
2023-03-27T13:43:22.897Z,18.03
2023-03-27T13:46:01.419Z,30.90
2023-03-27T13:49:16.680Z,18.87
2023-03-27T13:52:39.772Z,19.60
2023-03-27T13:55:34.629Z,22.10
2023-03-27T13:58:48.552Z,21.13
2023-03-27T14:01:37.275Z,21.23
2023-03-27T14:04:36.709Z,23.70
2023-03-27T14:07:43.754Z,16.83
2023-03-27T14:10:40.846Z,18.53
2023-03-27T14:13:28.947Z,20.27
2023-03-27T14:16:37.388Z,15.33
2023-03-27T14:19:37.440Z,17.47
2023-03-27T14:22:14.436Z,19.53
2023-03-27T14:24:57.256Z,19.40
2023-03-27T14:27:36.316Z,16.00
2023-03-27T14:30:15.720Z,24.43
2023-03-27T14:32:50.088Z,11.70
2023-03-27T14:35:33.313Z,17.23
2023-03-27T14:38:16.759Z,18.07
2023-03-27T14:40:50.306Z,25.27
2023-03-27T14:43:23.083Z,25.13
2023-03-27T14:46:00.535Z,18.47
2023-03-27T14:48:33.447Z,29.33
2023-03-27T14:51:07.248Z,22.53
2023-03-27T14:53:44.443Z,22.00
2023-03-27T14:56:27.764Z,21.60
2023-03-27T14:59:08.120Z,20.83
2023-03-27T15:01:49.831Z,17.07
2023-03-27T15:04:19.458Z,19.30
2023-03-27T15:06:50.165Z,15.77
2023-03-27T15:09:38.986Z,17.67
2023-03-27T15:12:11.355Z,16.10
2023-03-27T15:14:42.428Z,25.93
2023-03-27T15:17:15.902Z,18.73
2023-03-27T15:19:49.103Z,18.67
2023-03-27T15:22:23.751Z,22.90
2023-03-27T15:24:56.785Z,12.80
2023-03-27T15:27:30.005Z,16.93
2023-03-27T15:30:03.800Z,22.17
2023-03-27T15:32:42.527Z,17.20
2023-03-27T15:35:17.992Z,20.43
2023-03-27T15:37:47.133Z,19.17
2023-03-27T15:40:36.621Z,26.83
2023-03-27T15:43:21.040Z,16.57
2023-03-27T15:46:14.952Z,18.00
2023-03-27T15:48:46.037Z,20.07
2023-03-27T15:51:30.097Z,16.60
2023-03-27T15:53:59.091Z,18.03
2023-03-27T15:56:30.285Z,17.77
2023-03-27T15:59:01.574Z,16.70
2023-03-27T16:01:34.831Z,20.40
2023-03-27T16:04:08.708Z,18.23
2023-03-27T16:06:40.846Z,15.10
2023-03-27T16:09:25.006Z,18.30
2023-03-27T16:11:55.172Z,14.07
2023-03-27T16:14:32.135Z,11.20
2023-03-27T16:17:22.490Z,19.77
2023-03-27T16:19:53.892Z,19.03
2023-03-27T16:22:24.673Z,17.50
2023-03-27T16:24:54.222Z,16.73
2023-03-27T16:27:24.445Z,13.37
2023-03-27T16:29:53.789Z,15.77
2023-03-27T16:32:24.305Z,12.27
2023-03-27T16:34:53.410Z,22.60
2023-03-27T16:37:24.194Z,15.23
2023-03-27T16:39:54.233Z,15.37
2023-03-27T16:42:26.614Z,12.63
2023-03-27T16:44:55.922Z,22.90
2023-03-27T16:47:25.950Z,16.10
2023-03-27T16:50:10.177Z,11.60
2023-03-27T16:52:39.187Z,16.67
2023-03-27T16:55:09.050Z,28.57
2023-03-27T16:57:37.750Z,18.10
2023-03-27T17:00:09.742Z,17.83
2023-03-27T17:02:39.687Z,17.70
2023-03-27T17:05:10.112Z,27.73
2023-03-27T17:07:38.593Z,17.40
2023-03-27T17:10:10.303Z,14.63
2023-03-27T17:12:38.954Z,19.40
2023-03-27T17:15:09.054Z,13.70
2023-03-27T17:17:38.941Z,17.23
2023-03-27T17:20:09.231Z,14.60
2023-03-27T17:22:37.764Z,15.23
2023-03-27T17:25:07.652Z,17.20
2023-03-27T17:27:36.876Z,15.43
2023-03-27T17:30:07.201Z,14.47
2023-03-27T17:32:35.701Z,16.50
2023-03-27T17:35:06.455Z,19.93
2023-03-27T17:37:36.093Z,19.33
2023-03-27T17:40:09.500Z,20.00
2023-03-27T17:42:38.552Z,19.27
2023-03-27T17:45:07.769Z,19.37
2023-03-27T17:47:36.469Z,16.03
2023-03-27T17:50:07.977Z,21.00
2023-03-27T17:52:36.404Z,15.50
2023-03-27T17:55:06.472Z,18.77
2023-03-27T17:57:38.011Z,19.87
2023-03-27T18:00:09.586Z,14.80
2023-03-27T18:02:41.308Z,16.53
2023-03-27T18:05:12.162Z,13.57
2023-03-27T18:07:42.200Z,16.17
2023-03-27T18:10:14.417Z,12.50
2023-03-27T18:12:42.836Z,14.77
2023-03-27T18:15:12.044Z,14.77
2023-03-27T18:17:41.547Z,14.30
2023-03-27T18:20:12.850Z,13.97
2023-03-27T18:22:41.510Z,10.77
2023-03-27T18:25:11.596Z,13.43
2023-03-27T18:27:41.166Z,17.53
2023-03-27T18:30:12.670Z,21.17
2023-03-27T18:32:42.656Z,17.37
2023-03-27T18:35:14.268Z,15.10
2023-03-27T18:37:44.220Z,13.47
2023-03-27T18:40:15.323Z,13.60
2023-03-27T18:42:44.952Z,13.20
2023-03-27T18:45:15.526Z,12.33
2023-03-27T18:47:44.921Z,14.63
2023-03-27T18:50:15.819Z,13.03
2023-03-27T18:52:44.641Z,14.20
2023-03-27T18:55:13.789Z,18.03
2023-03-27T18:57:42.277Z,10.73
2023-03-27T19:00:18.276Z,17.03
2023-03-27T19:02:47.946Z,13.10
2023-03-27T19:05:18.838Z,11.90
2023-03-27T19:07:47.418Z,13.70
2023-03-27T19:10:16.178Z,15.57
2023-03-27T19:12:49.709Z,15.00
2023-03-27T19:15:42.195Z,15.57
2023-03-27T19:18:30.439Z,17.60
2023-03-27T19:21:20.933Z,20.33
2023-03-27T19:24:02.863Z,42.57
2023-03-27T19:26:38.591Z,37.43
2023-03-27T19:29:07.689Z,45.20
2023-03-27T19:31:36.993Z,36.13
2023-03-27T19:34:06.096Z,37.60
2023-03-27T19:36:36.610Z,38.20
2023-03-27T19:39:05.551Z,44.33
2023-03-27T19:41:34.353Z,40.30
2023-03-27T19:44:03.502Z,34.10
2023-03-27T19:46:33.754Z,46.20
2023-03-27T19:49:02.335Z,35.43
2023-03-27T19:51:52.803Z,52.00
2023-03-27T19:54:21.302Z,42.63
2023-03-27T19:56:50.071Z,47.23
2023-03-27T19:59:29.818Z,42.27
2023-03-27T20:01:59.609Z,52.40
2023-03-27T20:04:28.176Z,65.23
2023-03-27T20:07:02.005Z,68.33
2023-03-27T20:09:31.409Z,77.53
2023-03-27T20:12:01.421Z,78.90
2023-03-27T20:14:31.272Z,86.37
2023-03-27T20:17:00.269Z,83.90
2023-03-27T20:19:30.474Z,63.33
2023-03-27T20:22:07.649Z,67.03
2023-03-27T20:24:36.690Z,69.80
2023-03-27T20:27:07.147Z,59.27
2023-03-27T20:29:35.861Z,58.53
2023-03-27T20:32:05.797Z,59.57
2023-03-27T20:34:36.546Z,49.67
2023-03-27T20:37:11.981Z,52.33
2023-03-27T20:39:55.571Z,57.90
2023-03-27T20:42:26.771Z,60.37
2023-03-27T20:44:58.116Z,52.90
2023-03-27T20:47:26.994Z,56.83
2023-03-27T20:49:58.790Z,60.43
2023-03-27T20:52:28.994Z,45.50
2023-03-27T20:54:57.577Z,47.90
2023-03-27T20:57:26.693Z,62.57
2023-03-27T20:59:55.316Z,57.77
2023-03-27T21:02:24.468Z,51.63
2023-03-27T21:04:52.984Z,74.27
2023-03-27T21:07:21.825Z,50.67
2023-03-27T21:09:53.128Z,46.70
2023-03-27T21:12:21.912Z,49.50
2023-03-27T21:14:50.432Z,49.30
2023-03-27T21:17:19.257Z,46.33
2023-03-27T21:19:47.821Z,42.40
2023-03-27T21:22:17.161Z,40.80
2023-03-27T21:24:45.769Z,47.23
2023-03-27T21:27:15.883Z,37.57
2023-03-27T21:29:44.380Z,42.07
2023-03-27T21:32:13.146Z,36.97
2023-03-27T21:34:41.899Z,43.43
2023-03-27T21:37:10.619Z,29.17
2023-03-27T21:39:39.043Z,36.47
2023-03-27T21:42:07.781Z,27.03
2023-03-27T21:44:37.566Z,50.03
2023-03-27T21:47:06.429Z,28.33
2023-03-27T21:49:35.001Z,27.37
2023-03-27T21:52:03.660Z,29.30
2023-03-27T21:54:32.178Z,31.30
2023-03-27T21:57:01.022Z,33.00
2023-03-27T21:59:30.215Z,28.67
2023-03-27T22:02:00.288Z,28.03
2023-03-27T22:04:28.917Z,33.50
2023-03-27T22:06:57.668Z,31.87
2023-03-27T22:09:26.081Z,29.37
2023-03-27T22:11:56.795Z,28.63
2023-03-27T22:14:25.302Z,31.13
2023-03-27T22:16:54.310Z,30.23
2023-03-27T22:19:24.230Z,30.93
2023-03-27T22:21:53.251Z,39.60
2023-03-27T22:24:21.664Z,29.90
2023-03-27T22:26:50.717Z,21.63
2023-03-27T22:29:19.134Z,29.33
2023-03-27T22:31:47.916Z,21.43
2023-03-27T22:34:16.445Z,23.07
2023-03-27T22:36:46.511Z,34.93
2023-03-27T22:39:15.036Z,21.50
2023-03-27T22:41:43.696Z,21.17
2023-03-27T22:44:12.155Z,28.30
2023-03-27T22:46:41.286Z,20.13
2023-03-27T22:49:10.143Z,20.70
2023-03-27T22:51:38.844Z,21.27
2023-03-27T22:54:08.934Z,18.37
2023-03-27T22:56:37.760Z,21.80
2023-03-27T22:59:06.225Z,22.77
2023-03-27T23:01:35.021Z,23.47
2023-03-27T23:04:03.562Z,23.80
2023-03-27T23:06:32.366Z,21.23
2023-03-27T23:09:01.088Z,26.57
2023-03-27T23:11:31.320Z,25.30
2023-03-27T23:13:59.796Z,22.87
2023-03-27T23:16:28.750Z,15.90
2023-03-27T23:18:57.230Z,18.00
2023-03-27T23:21:25.925Z,23.30
2023-03-27T23:23:54.341Z,27.90
2023-03-27T23:26:23.100Z,16.23
2023-03-27T23:28:53.317Z,16.97
2023-03-27T23:31:22.165Z,17.70
2023-03-27T23:33:51.575Z,21.77
2023-03-27T23:36:21.881Z,17.87
2023-03-27T23:38:51.517Z,16.73
2023-03-27T23:41:21.262Z,19.37
2023-03-27T23:43:49.903Z,18.27
2023-03-27T23:46:20.120Z,18.03
2023-03-27T23:48:48.629Z,24.77
2023-03-27T23:51:17.795Z,21.67
2023-03-27T23:53:46.275Z,18.00
2023-03-27T23:56:15.045Z,23.57
2023-03-27T23:58:43.814Z,18.77
